Terminal Aerodrome Forecast
Issued by NWS Mt. Holly, NJ

Home | Current Version | Previous Version | Text Only | Print | Product List | Glossary On
Versions: 1 2 3 4 5 6 7 8 9 10 11 12 13 14 15 16 17 18 19 20 21 22 23
000
FTUS41 KPHI 041729
TAFPHL
TAF
KPHL 041729Z 0418/0524 26011G21KT P6SM BKN050
     FM042000 26011G21KT P6SM VCTS BKN040CB
     FM050000 28008G14KT P6SM BKN050
     FM050100 29005KT P6SM SCT060
     FM050700 34004KT P6SM SKC
     FM051400 29012G22KT P6SM SCT050
     FM052300 29007G15KT P6SM FEW050=

USA.gov is the U.S. government's official web portal to all federal, state and local government web resources and services.